createdAt,value
2023-01-13T00:02:35.351Z,-1.67
2023-01-13T00:07:42.169Z,-1.64
2023-01-13T00:12:46.779Z,-1.54
2023-01-13T00:17:52.956Z,-1.47
2023-01-13T00:22:58.008Z,-1.39
2023-01-13T00:28:02.647Z,-1.28
2023-01-13T00:33:07.263Z,-1.17
2023-01-13T00:38:12.997Z,-1.08
2023-01-13T00:43:32.766Z,-0.94
2023-01-13T00:48:40.775Z,-0.81
2023-01-13T00:53:48.798Z,-0.68
2023-01-13T00:58:53.438Z,-0.58
2023-01-13T01:03:58.331Z,-0.44
2023-01-13T01:09:06.729Z,-0.35
2023-01-13T01:14:17.096Z,-0.23
2023-01-13T01:19:23.331Z,-0.11
2023-01-13T01:24:28.733Z,-0.01
2023-01-13T01:29:34.301Z,0.12
2023-01-13T01:34:40.378Z,0.27
2023-01-13T01:39:47.316Z,0.45
2023-01-13T01:45:02.523Z,0.74
2023-01-13T01:50:08.885Z,0.91
2023-01-13T01:55:23.208Z,1.02
2023-01-13T02:00:30.465Z,1.06
2023-01-13T02:05:40.204Z,1.13
2023-01-13T02:10:48.305Z,1.24
2023-01-13T02:16:19.106Z,1.27
2023-01-13T02:21:49.639Z,1.28
2023-01-13T02:27:31.099Z,1.32
2023-01-13T02:32:55.384Z,1.33
2023-01-13T02:38:05.383Z,1.32
2023-01-13T02:43:59.367Z,1.38
2023-01-13T02:49:11.771Z,1.48
2023-01-13T02:54:23.786Z,1.54
2023-01-13T02:59:31.488Z,1.58
2023-01-13T03:05:00.070Z,1.61
2023-01-13T03:10:09.218Z,1.61
2023-01-13T03:15:20.344Z,1.61
2023-01-13T03:20:31.593Z,1.56
2023-01-13T03:25:46.747Z,1.55
2023-01-13T03:31:00.798Z,1.55
2023-01-13T03:36:13.461Z,1.50
2023-01-13T03:41:31.399Z,1.51
2023-01-13T03:46:56.307Z,1.54
2023-01-13T03:52:07.668Z,1.58
2023-01-13T03:57:16.737Z,1.60
2023-01-13T04:02:49.337Z,1.63
2023-01-13T04:08:17.427Z,1.65
2023-01-13T04:13:23.692Z,1.68
2023-01-13T04:18:31.942Z,1.69
2023-01-13T04:23:37.875Z,1.67
2023-01-13T04:28:43.301Z,1.66
2023-01-13T04:33:50.747Z,1.68
2023-01-13T04:38:59.364Z,1.69
2023-01-13T04:44:05.796Z,1.68
2023-01-13T04:49:11.079Z,1.70
2023-01-13T04:54:17.688Z,1.77
2023-01-13T04:59:32.802Z,1.80
2023-01-13T05:16:15.343Z,1.92
2023-01-13T05:21:59.708Z,1.91
2023-01-13T05:27:41.371Z,1.94
2023-01-13T05:32:53.572Z,1.94
2023-01-13T05:37:58.685Z,1.94
2023-01-13T05:43:24.410Z,1.97
2023-01-13T05:48:35.280Z,1.96
2023-01-13T05:53:43.383Z,1.99
2023-01-13T05:58:48.269Z,2.04
2023-01-13T06:03:53.074Z,2.10
2023-01-13T06:08:57.831Z,2.16
2023-01-13T06:14:04.646Z,2.21
2023-01-13T06:54:27.680Z,1.54
2023-01-13T06:59:37.564Z,1.76
2023-01-13T07:04:43.968Z,1.94
2023-01-13T07:09:50.942Z,2.06
2023-01-13T07:15:17.509Z,2.22
2023-01-13T07:20:24.387Z,2.37
2023-01-13T07:25:29.335Z,2.44
2023-01-13T07:30:34.217Z,2.48
2023-01-13T07:35:39.035Z,2.53
2023-01-13T07:40:43.845Z,2.54
2023-01-13T07:45:50.295Z,2.51
2023-01-13T07:50:55.980Z,2.54
2023-01-13T07:56:01.869Z,2.56
2023-01-13T08:01:15.382Z,2.58
2023-01-13T08:06:20.577Z,2.58
2023-01-13T08:11:25.447Z,2.56
2023-01-13T08:16:30.352Z,2.51
2023-01-13T08:21:36.323Z,2.52
2023-01-13T08:26:41.139Z,2.49
2023-01-13T08:31:45.966Z,2.42
2023-01-13T08:36:54.977Z,2.32
2023-01-13T08:42:02.787Z,2.25
2023-01-13T08:47:10.039Z,2.22
2023-01-13T08:52:17.178Z,2.09
2023-01-13T08:57:22.003Z,2.09
2023-01-13T09:02:27.895Z,2.07
2023-01-13T09:07:34.411Z,1.95
2023-01-13T09:12:57.144Z,1.93
2023-01-13T09:18:03.069Z,1.86
2023-01-13T09:23:10.629Z,1.74
2023-01-13T09:28:15.615Z,1.74
2023-01-13T09:33:38.550Z,1.68
2023-01-13T09:38:43.203Z,1.62
2023-01-13T09:43:57.979Z,1.51
2023-01-13T09:49:04.931Z,1.45
2023-01-13T09:54:20.265Z,1.37
2023-01-13T09:59:28.213Z,1.22
2023-01-13T10:04:34.437Z,1.13
2023-01-13T10:09:55.485Z,1.02
2023-01-13T10:15:00.427Z,0.95
2023-01-13T10:20:26.175Z,0.82
2023-01-13T10:26:25.436Z,0.84
2023-01-13T10:31:31.782Z,0.73
2023-01-13T10:36:37.703Z,0.65
2023-01-13T10:41:47.843Z,0.57
2023-01-13T10:46:59.156Z,0.47
2023-01-13T10:52:06.255Z,0.32
2023-01-13T10:57:31.274Z,0.26
2023-01-13T11:02:38.116Z,0.12
2023-01-13T11:07:54.852Z,0.11
2023-01-13T11:13:02.887Z,-0.05
2023-01-13T11:18:18.985Z,-0.07
2023-01-13T11:23:30.659Z,-0.16
2023-01-13T11:28:43.162Z,-0.23
2023-01-13T11:34:23.535Z,-0.43
2023-01-13T11:39:46.907Z,-0.41
2023-01-13T11:45:15.208Z,-0.48
2023-01-13T11:50:46.475Z,-0.49
2023-01-13T11:56:15.010Z,-0.57
2023-01-13T12:01:38.471Z,-0.69
2023-01-13T12:06:46.108Z,-0.77
2023-01-13T12:12:18.212Z,-0.83
2023-01-13T12:18:00.531Z,-0.91
2023-01-13T12:23:38.402Z,-1.01
2023-01-13T12:28:56.538Z,-1.11
2023-01-13T12:34:21.577Z,-1.10
2023-01-13T12:39:28.060Z,-1.11
2023-01-13T12:44:35.839Z,-1.22
2023-01-13T12:49:42.857Z,-1.32
2023-01-13T12:54:50.513Z,-1.38
2023-01-13T13:00:02.064Z,-1.41
2023-01-13T13:05:26.781Z,-1.61
2023-01-13T13:10:47.782Z,-1.70
2023-01-13T13:16:44.349Z,-1.84
2023-01-13T13:22:17.351Z,-1.89
2023-01-13T13:27:41.429Z,-2.07
2023-01-13T13:33:09.652Z,-2.13
2023-01-13T13:38:43.725Z,-2.23
2023-01-13T13:44:07.629Z,-2.25
2023-01-13T13:49:13.701Z,-2.36
2023-01-13T13:54:27.745Z,-2.36
2023-01-13T13:59:35.021Z,-2.51
2023-01-13T14:04:41.278Z,-2.52
2023-01-13T14:09:58.145Z,-2.49
2023-01-13T14:15:03.131Z,-2.58
2023-01-13T14:20:17.690Z,-2.57
2023-01-13T14:25:50.087Z,-2.52
2023-01-13T14:30:56.557Z,-2.58
2023-01-13T14:36:14.335Z,-2.59
2023-01-13T14:41:27.222Z,-2.65
2023-01-13T14:46:45.319Z,-2.71
2023-01-13T14:51:51.322Z,-2.74
2023-01-13T14:57:28.890Z,-2.89
2023-01-13T15:02:34.804Z,-2.88
2023-01-13T15:07:39.896Z,-2.88
2023-01-13T15:12:48.501Z,-3.01
2023-01-13T15:17:56.370Z,-2.98
2023-01-13T15:23:02.483Z,-3.01
2023-01-13T15:28:09.602Z,-3.15
2023-01-13T15:33:16.191Z,-3.09
2023-01-13T15:38:24.932Z,-3.17
2023-01-13T15:43:48.146Z,-3.20
2023-01-13T15:48:54.875Z,-3.37
2023-01-13T15:54:03.886Z,-3.48
2023-01-13T15:59:19.467Z,-3.50
2023-01-13T16:04:24.650Z,-3.64
2023-01-13T16:09:29.608Z,-3.63
2023-01-13T16:14:34.459Z,-3.82
2023-01-13T16:19:39.459Z,-3.96
2023-01-13T16:24:46.945Z,-3.90
2023-01-13T16:29:53.796Z,-4.00
2023-01-13T16:34:59.789Z,-4.08
2023-01-13T16:40:04.912Z,-4.09
2023-01-13T16:45:11.059Z,-4.22
2023-01-13T16:50:30.957Z,-4.29
2023-01-13T16:55:35.874Z,-4.32
2023-01-13T17:00:40.852Z,-4.43
2023-01-13T17:05:53.082Z,-4.50
2023-01-13T17:10:57.909Z,-4.53
2023-01-13T17:16:03.343Z,-4.48
2023-01-13T17:21:09.522Z,-4.48
2023-01-13T17:26:34.114Z,-4.54
2023-01-13T17:31:39.101Z,-4.71
2023-01-13T17:36:46.883Z,-4.65
2023-01-13T17:41:52.413Z,-4.81
2023-01-13T17:46:56.945Z,-4.96
2023-01-13T17:52:01.663Z,-4.93
2023-01-13T17:57:07.005Z,-4.98
2023-01-13T18:02:14.002Z,-4.97
2023-01-13T18:07:19.006Z,-5.04
2023-01-13T18:12:23.621Z,-5.04
2023-01-13T18:17:28.166Z,-5.20
2023-01-13T18:22:50.811Z,-5.28
2023-01-13T18:27:55.410Z,-5.26
2023-01-13T18:33:00.524Z,-5.42
2023-01-13T18:38:05.132Z,-5.52
2023-01-13T18:43:09.676Z,-5.61
2023-01-13T18:48:14.255Z,-5.56
2023-01-13T18:53:18.839Z,-5.64
2023-01-13T18:58:23.910Z,-5.55
2023-01-13T19:03:30.251Z,-5.71
2023-01-13T19:08:35.378Z,-5.76
2023-01-13T19:13:40.220Z,-5.67
2023-01-13T19:18:45.002Z,-5.74
2023-01-13T19:23:49.575Z,-5.72
2023-01-13T19:28:54.451Z,-5.76
2023-01-13T19:33:59.898Z,-5.78
2023-01-13T19:39:04.460Z,-5.85
2023-01-13T19:44:30.994Z,-5.87
2023-01-13T19:49:35.704Z,-5.81
2023-01-13T19:54:40.255Z,-5.88
2023-01-13T19:59:46.614Z,-5.91
2023-01-13T20:04:51.246Z,-5.99
2023-01-13T20:09:57.668Z,-5.99
2023-01-13T20:15:03.590Z,-5.98
2023-01-13T20:20:09.263Z,-6.03
2023-01-13T20:25:19.740Z,-6.01
2023-01-13T20:30:27.385Z,-6.04
2023-01-13T20:35:32.012Z,-6.07
2023-01-13T20:40:36.543Z,-6.08
2023-01-13T20:45:41.690Z,-6.15
2023-01-13T20:50:46.316Z,-6.16
2023-01-13T20:55:50.856Z,-6.16
2023-01-13T21:01:00.666Z,-6.34
2023-01-13T21:06:05.361Z,-6.31
2023-01-13T21:11:12.691Z,-6.34
2023-01-13T21:16:18.573Z,-6.36
2023-01-13T21:21:23.378Z,-6.29
2023-01-13T21:26:27.943Z,-6.33
2023-01-13T21:31:32.600Z,-6.40
2023-01-13T21:36:37.210Z,-6.47
2023-01-13T21:41:59.694Z,-6.53
2023-01-13T21:47:22.459Z,-6.50
2023-01-13T21:52:27.411Z,-6.56
2023-01-13T21:57:33.611Z,-6.55
2023-01-13T22:02:39.375Z,-6.67
2023-01-13T22:07:44.338Z,-6.72
2023-01-13T22:12:49.442Z,-6.68
2023-01-13T22:17:55.797Z,-6.73
2023-01-13T22:23:00.368Z,-6.76
2023-01-13T22:28:07.258Z,-6.76
2023-01-13T22:33:11.851Z,-6.81
2023-01-13T22:38:16.961Z,-6.79
2023-01-13T22:43:21.678Z,-6.91
2023-01-13T22:48:26.655Z,-7.01
2023-01-13T22:53:31.219Z,-7.02
2023-01-13T22:58:36.695Z,-6.99
2023-01-13T23:03:43.107Z,-7.12
2023-01-13T23:08:48.465Z,-7.04
2023-01-13T23:13:58.702Z,-7.06
2023-01-13T23:19:03.830Z,-7.11
2023-01-13T23:24:09.372Z,-7.14
2023-01-13T23:29:15.187Z,-7.20
2023-01-13T23:34:19.858Z,-7.27
2023-01-13T23:39:25.768Z,-7.21
2023-01-13T23:44:31.742Z,-7.21
2023-01-13T23:49:37.343Z,-7.18
2023-01-13T23:54:41.872Z,-7.28
2023-01-13T23:59:46.481Z,-7.32
